Impacts METAR Board
IDs:

KGDJ - Granbury Muni, TX, US

Updated at: 0500 UTC 19 Aug 2019
Potential Impact None Slight Moderate High
Time 18/17Z 18/18Z 18/19Z 18/20Z 18/21Z 18/22Z 18/23Z 19/00Z 19/01Z 19/02Z 19/03Z 19/04Z 19/05Z
Temp93 96 99 100 101 101 101 100 96 93 90 89 87
Dewpt67 66 65 64 64 63 63 64 64 64 65 66 67
Altim29.91 29.90 29.89 29.87 29.85 29.85 29.83 29.83 29.82 29.84 29.87 29.90 29.91
VIS10 10 10 10 10 10 10 10 10 10 10 10 10
CIG-- -- -- -- -- -- -- -- -- -- -- -- --
CoverCLRCLRCLRCLRCLRCLRCLRCLRCLRCLRCLRCLRCLR
FltCatVFRVFRVFRVFRVFRVFRVFRVFRVFRVFRVFRVFRVFR
WX--------------------------
WDir170170160150120150150140130130120130130
WSpd8 7 9 6 9 8 13 11 10 7 6 7 6
WGst-- 14 -- -- -- 15 16 15 -- -- -- -- --
Raw hourly METARs
KGDJ 181655Z AUTO 17008KT 10SM CLR 34/20 A2991 RMK AO2 T03400196
KGDJ 181755Z AUTO 17007G14KT 10SM CLR 36/19 A2990 RMK AO2 T03570189 10357 20275
KGDJ 181855Z AUTO 16009KT 10SM CLR 37/19 A2989 RMK AO2 T03710185
KGDJ 181955Z AUTO 15006KT 10SM CLR 38/18 A2987 RMK AO2 T03770180
KGDJ 182055Z AUTO 12009KT 10SM CLR 39/18 A2985 RMK AO2 T03860180
KGDJ 182155Z AUTO 15008G15KT 10SM CLR 39/17 A2985 RMK AO2 T03860170
KGDJ 182255Z AUTO 15013G16KT 10SM CLR 38/17 A2983 RMK AO2 T03820171
KGDJ 182355Z AUTO 14011G15KT 10SM CLR 38/18 A2983 RMK AO2 T03750178 10389 20356
KGDJ 190055Z AUTO 13010KT 10SM CLR 36/18 A2982 RMK AO2 T03570180
KGDJ 190155Z AUTO 13007KT 10SM CLR 34/18 A2984 RMK AO2 T03410177
KGDJ 190255Z AUTO 12006KT 10SM CLR 32/18 A2987 RMK AO2 T03230184
KGDJ 190355Z AUTO 13007KT 10SM CLR 32/19 A2990 RMK AO2 T03150191
KGDJ 190455Z AUTO 13006KT 10SM CLR 31/20 A2991 RMK AO2 T03070195



Page loaded:  05:25 UTC  |   10:25 PM Pacific  |   11:25 PM Mountain  |   12:25 AM Central  |   01:25 AM Eastern

 

ADVISORIES

FORECASTS

FORECASTS

OBSERVATIONS

USER TOOLS

ABOUT US